Time;durP1;ratioP1;P1;durP2;ratioP2;P2;SDS_P1;SDS_P2;PMS_P1;PMS_P2;Temp;Humidity;BMP_temperature;BMP_pressure;BME280_temperature;BME280_humidity;BME280_pressure;Samples;Min_cycle;Max_cycle;Signal;HPM_P1;HPM_P2
2021/12/02 00:02:06;;;;;;;;;;;;;;;-144.99;77.96;52668.22;5064519;28;19997;-74
2021/12/02 00:04:33;;;;;;;;;;;;;;;-144.99;77.42;52664.16;5068585;28;19980;-74
2021/12/02 00:07:00;;;;;;;;;;;;;;;-144.99;77.53;52651.94;5069233;28;19985;-74
2021/12/02 00:09:26;;;;;;;;;;;;;;;-144.99;75.85;52662.13;5057251;28;20234;-74
2021/12/02 00:11:52;;;;;;;;;;;;;;;-144.99;76.45;52709.00;5047703;28;20008;-74
2021/12/02 00:14:24;;;;;;;;;;;;;;;-144.99;77.39;52656.00;5049946;28;19973;-74
2021/12/02 00:17:04;;;;;;;;;;;;;;;-144.99;78.16;52668.22;5047858;28;20060;-73
2021/12/02 00:22:14;;;;;;;;;;;;;;;-144.99;77.71;52647.84;5050034;28;19997;-73
2021/12/02 00:24:46;;;;;;;;;;;;;;;-144.99;78.91;52684.53;5053914;28;19984;-73
2021/12/02 00:27:13;;;;;;;;;;;;;;;-144.99;78.96;52706.97;5051051;28;20432;-72
2021/12/02 00:29:39;;;;;;;;;;;;;;;-144.99;79.71;52656.00;5046604;28;19977;-73
2021/12/02 00:32:09;;;;;;;;;;;;;;;-144.99;79.63;52668.22;5039451;28;19989;-73
2021/12/02 00:34:37;;;;;;;;;;;;;;;-144.99;79.11;52706.97;5051554;28;20007;-72
2021/12/02 00:37:03;;;;;;;;;;;;;;;-144.99;78.75;52690.66;5046147;28;19985;-73
2021/12/02 00:39:30;;;;;;;;;;;;;;;-144.99;77.21;52656.00;5042211;28;19980;-73
2021/12/02 00:41:57;;;;;;;;;;;;;;;-144.99;76.61;52700.84;5046311;28;19993;-73
2021/12/02 00:44:23;;;;;;;;;;;;;;;-144.99;75.64;52656.00;5052933;28;19977;-73
2021/12/02 00:46:50;;;;;;;;;;;;;;;-144.99;74.21;52627.47;5054765;28;19978;-73
2021/12/02 00:49:18;;;;;;;;;;;;;;;-144.99;74.53;52704.94;5053592;28;19973;-73
2021/12/02 00:51:46;;;;;;;;;;;;;;;-144.99;75.65;52635.63;5054178;28;20463;-73
2021/12/02 00:54:13;;;;;;;;;;;;;;;-144.99;74.87;52662.13;5043256;28;19980;-73
2021/12/02 00:56:40;;;;;;;;;;;;;;;-144.99;75.08;52692.69;5043615;28;19993;-73
2021/12/02 00:59:07;;;;;;;;;;;;;;;-144.99;75.02;52700.84;5050630;28;19973;-73
2021/12/02 01:01:35;;;;;;;;;;;;;;;-144.99;76.20;52668.22;5054339;28;19993;-73
2021/12/02 01:04:03;;;;;;;;;;;;;;;-144.99;77.50;52660.09;5046881;28;19981;-73
2021/12/02 01:06:31;;;;;;;;;;;;;;;-144.99;78.04;52690.66;5054658;28;19988;-73
2021/12/02 01:08:57;;;;;;;;;;;;;;;-144.99;78.84;52682.50;5045403;28;19969;-73
2021/12/02 01:11:23;;;;;;;;;;;;;;;-144.99;78.29;52668.22;5050770;28;19989;-74
2021/12/02 01:13:50;;;;;;;;;;;;;;;-144.99;78.79;52682.50;5045337;28;20060;-73
2021/12/02 01:16:16;;;;;;;;;;;;;;;-144.99;80.64;52668.22;5041441;28;19993;-73
2021/12/02 01:18:43;;;;;;;;;;;;;;;-144.99;82.14;52643.78;5043933;28;19984;-73
2021/12/02 01:21:12;;;;;;;;;;;;;;;-144.99;80.70;52668.22;5039915;28;20008;-73
2021/12/02 01:23:40;;;;;;;;;;;;;;;-144.99;81.01;52672.31;5044349;28;20428;-73
2021/12/02 01:26:08;;;;;;;;;;;;;;;-144.99;81.33;52670.28;5048782;28;19981;-73
2021/12/02 01:28:35;;;;;;;;;;;;;;;-144.99;81.58;52725.31;5049235;28;19978;-74
2021/12/02 01:31:01;;;;;;;;;;;;;;;-144.99;82.07;52700.84;5069343;28;19994;-73
2021/12/02 01:33:28;;;;;;;;;;;;;;;-144.99;82.46;52643.78;5069977;28;20001;-73
2021/12/02 01:35:56;;;;;;;;;;;;;;;-144.99;82.95;52684.53;5073632;28;19993;-75
2021/12/02 01:38:23;;;;;;;;;;;;;;;-144.99;82.39;52680.47;5070060;28;19961;-75
2021/12/02 01:40:51;;;;;;;;;;;;;;;-144.99;82.08;52680.47;5074322;28;20004;-75
2021/12/02 01:43:18;;;;;;;;;;;;;;;-144.99;82.05;52676.38;5071128;28;20048;-75
2021/12/02 01:45:47;;;;;;;;;;;;;;;-144.99;82.48;52680.47;5063365;28;19977;-74
2021/12/02 01:48:22;;;;;;;;;;;;;;;-144.99;82.12;52684.53;5066429;28;19961;-74
2021/12/02 01:50:59;;;;;;;;;;;;;;;-144.99;82.20;52674.34;5076511;28;20004;-74
2021/12/02 01:53:30;;;;;;;;;;;;;;;-144.99;81.75;52680.47;5070274;28;20045;-74
2021/12/02 01:56:09;;;;;;;;;;;;;;;-144.99;82.00;52717.16;5066595;28;19993;-74
2021/12/02 01:58:37;;;;;;;;;;;;;;;-144.99;82.85;52684.53;5069843;28;20414;-74
2021/12/02 02:01:06;;;;;;;;;;;;;;;-144.99;82.79;52680.47;5074702;28;19997;-74
2021/12/02 02:03:33;;;;;;;;;;;;;;;-144.99;83.14;52676.38;5074327;28;20041;-73
2021/12/02 02:06:02;;;;;;;;;;;;;;;-144.99;82.05;52653.97;5074938;28;19992;-75
2021/12/02 02:08:29;;;;;;;;;;;;;;;-144.99;82.67;52643.78;5073287;28;20019;-74
2021/12/02 02:10:56;;;;;;;;;;;;;;;-144.99;80.94;52700.84;5059754;28;20020;-73
2021/12/02 02:13:23;;;;;;;;;;;;;;;-144.99;81.59;52713.09;5052177;28;20068;-72
2021/12/02 02:15:52;;;;;;;;;;;;;;;-144.99;80.51;52680.47;5051732;28;19993;-72
2021/12/02 02:18:20;;;;;;;;;;;;;;;-144.99;80.69;52684.53;5057701;28;19974;-73
2021/12/02 02:20:50;;;;;;;;;;;;;;;-144.99;80.31;52688.63;5056315;28;19993;-73
2021/12/02 02:23:17;;;;;;;;;;;;;;;-144.99;80.70;52700.84;5055648;28;19973;-74
2021/12/02 02:25:45;;;;;;;;;;;;;;;-144.99;80.81;52688.63;5052558;28;19981;-73
2021/12/02 02:28:11;;;;;;;;;;;;;;;-144.99;80.89;52684.53;5058448;28;20029;-74
2021/12/02 02:30:38;;;;;;;;;;;;;;;-144.99;80.20;52664.16;5056659;28;20004;-73
2021/12/02 02:33:04;;;;;;;;;;;;;;;-144.99;79.32;52692.69;5042188;28;20009;-72
2021/12/02 02:35:31;;;;;;;;;;;;;;;-144.99;79.70;52623.38;5065921;28;19993;-73
2021/12/02 02:38:00;;;;;;;;;;;;;;;-144.99;80.28;52713.09;5072451;28;19983;-73
2021/12/02 02:40:28;;;;;;;;;;;;;;;-144.99;79.69;52696.78;5066396;28;19990;-73
2021/12/02 02:42:59;;;;;;;;;;;;;;;-144.99;81.82;52668.22;5065111;28;19978;-73
2021/12/02 02:45:25;;;;;;;;;;;;;;;-144.99;80.65;52664.16;5060084;28;19978;-74
2021/12/02 02:47:52;;;;;;;;;;;;;;;-144.99;80.98;52653.97;5051432;28;19977;-73
2021/12/02 02:50:19;;;;;;;;;;;;;;;-144.99;81.86;52711.03;5055671;28;19993;-73
2021/12/02 02:52:46;;;;;;;;;;;;;;;-144.99;82.46;52653.97;5051998;28;20243;-73
2021/12/02 02:55:18;;;;;;;;;;;;;;;-144.99;82.41;52696.78;5053529;28;20510;-73
2021/12/02 02:57:52;;;;;;;;;;;;;;;-144.99;83.96;52660.09;5053155;28;20008;-74
2021/12/02 03:00:26;;;;;;;;;;;;;;;-144.99;85.38;52696.78;5050697;28;20363;-74
2021/12/02 03:02:57;;;;;;;;;;;;;;;-144.99;85.64;52668.22;5048076;28;20027;-74
2021/12/02 03:05:29;;;;;;;;;;;;;;;-144.99;86.53;52684.53;5044077;28;19980;-75
2021/12/02 03:07:58;;;;;;;;;;;;;;;-144.99;87.68;52696.78;5048645;28;20032;-74
2021/12/02 03:10:38;;;;;;;;;;;;;;;-144.99;89.08;52723.28;5045414;28;20424;-75
2021/12/02 03:13:14;;;;;;;;;;;;;;;-144.99;91.12;52717.16;5046116;28;19977;-74
2021/12/02 03:18:24;;;;;;;;;;;;;;;-144.99;90.79;52680.47;5045295;28;19984;-74
2021/12/02 03:20:50;;;;;;;;;;;;;;;-144.99;91.84;52680.47;5043047;28;20260;-74
2021/12/02 03:23:17;;;;;;;;;;;;;;;-144.99;91.95;52684.53;5051183;28;19977;-73
2021/12/02 03:25:44;;;;;;;;;;;;;;;-144.99;93.30;52704.94;5046305;28;19984;-74
2021/12/02 03:28:11;;;;;;;;;;;;;;;-144.99;92.59;52668.22;5046770;28;20450;-73
2021/12/02 03:30:37;;;;;;;;;;;;;;;-144.99;93.59;52680.47;5050483;28;20486;-74
2021/12/02 03:33:04;;;;;;;;;;;;;;;-144.99;93.88;52672.31;5040148;28;19981;-74
2021/12/02 03:35:30;;;;;;;;;;;;;;;-144.99;95.45;52692.69;5045760;28;19973;-74
2021/12/02 03:37:57;;;;;;;;;;;;;;;-144.99;95.30;52688.63;5046876;28;19977;-74
2021/12/02 03:40:23;;;;;;;;;;;;;;;-144.99;97.03;52684.53;5044970;28;19978;-74
2021/12/02 03:42:52;;;;;;;;;;;;;;;-144.99;97.41;52637.66;5041905;28;20444;-73
2021/12/02 03:45:19;;;;;;;;;;;;;;;-144.99;98.38;52715.13;5038041;28;19977;-73
2021/12/02 03:47:45;;;;;;;;;;;;;;;-144.99;98.83;52668.22;5050321;28;19977;-74
2021/12/02 03:50:11;;;;;;;;;;;;;;;-144.99;99.73;52672.31;5045288;28;19977;-73
2021/12/02 03:52:38;;;;;;;;;;;;;;;-144.99;100.00;52684.53;5051614;28;19977;-74
2021/12/02 03:55:04;;;;;;;;;;;;;;;-144.99;99.79;52674.34;5053282;28;19977;-73
2021/12/02 03:57:32;;;;;;;;;;;;;;;-144.99;99.61;52643.78;5054806;28;20000;-73
2021/12/02 04:00:00;;;;;;;;;;;;;;;-144.99;99.69;52723.28;5050971;28;19977;-73
2021/12/02 04:02:26;;;;;;;;;;;;;;;-144.99;99.12;52713.09;5050340;28;20371;-73
2021/12/02 04:04:53;;;;;;;;;;;;;;;-144.99;98.46;52678.44;5053203;28;20354;-74
2021/12/02 04:07:20;;;;;;;;;;;;;;;-144.99;97.74;52700.84;5047201;28;19980;-74
2021/12/02 04:09:48;;;;;;;;;;;;;;;-144.99;96.17;52651.94;5048999;28;19981;-74
2021/12/02 04:12:19;;;;;;;;;;;;;;;-144.99;95.21;52692.69;5052183;28;19989;-74
2021/12/02 04:14:50;;;;;;;;;;;;;;;-144.99;94.69;52725.31;5054343;28;19983;-74
2021/12/02 04:17:28;;;;;;;;;;;;;;;-144.99;93.25;52700.84;5051889;28;20471;-74
2021/12/02 04:19:55;;;;;;;;;;;;;;;-144.99;93.43;52682.50;5054125;28;20033;-73
2021/12/02 04:22:21;;;;;;;;;;;;;;;-144.99;92.98;52694.72;5053472;28;19980;-74
2021/12/02 04:24:47;;;;;;;;;;;;;;;-144.99;92.57;52692.69;5049874;28;20350;-74
2021/12/02 04:27:14;;;;;;;;;;;;;;;-144.99;91.04;52696.78;5049846;28;20344;-74
2021/12/02 04:29:40;;;;;;;;;;;;;;;-144.99;89.46;52696.78;5050097;28;20612;-73
2021/12/02 04:32:07;;;;;;;;;;;;;;;-144.99;88.61;52647.84;5051256;28;20008;-74
2021/12/02 04:34:34;;;;;;;;;;;;;;;-144.99;88.49;52688.63;5053887;28;19977;-74
2021/12/02 04:37:01;;;;;;;;;;;;;;;-144.99;88.14;52741.63;5050017;28;20012;-74
2021/12/02 04:39:27;;;;;;;;;;;;;;;-144.99;87.65;52680.47;5055041;28;19981;-73
2021/12/02 04:41:53;;;;;;;;;;;;;;;-144.99;86.88;52680.47;5049007;28;20466;-74
2021/12/02 04:44:20;;;;;;;;;;;;;;;-144.99;87.35;52678.44;5051697;28;19973;-73
2021/12/02 04:46:46;;;;;;;;;;;;;;;-144.99;86.49;52713.09;5050755;28;19973;-73
2021/12/02 04:49:13;;;;;;;;;;;;;;;-144.99;86.22;52684.53;5053304;28;19980;-73
2021/12/02 04:51:40;;;;;;;;;;;;;;;-144.99;86.54;52680.47;5070223;22;20005;-74
2021/12/02 04:54:07;;;;;;;;;;;;;;;-144.99;86.87;52694.72;5040916;28;20382;-76
2021/12/02 04:56:33;;;;;;;;;;;;;;;-144.99;87.16;52700.84;5050197;28;20453;-74
2021/12/02 04:58:59;;;;;;;;;;;;;;;-144.99;87.01;52611.16;5052331;28;19992;-75
2021/12/02 05:01:26;;;;;;;;;;;;;;;-144.99;86.88;52688.63;5050204;28;20367;-76
2021/12/02 05:03:52;;;;;;;;;;;;;;;-144.99;86.77;52684.53;5051330;28;19996;-76
2021/12/02 05:06:18;;;;;;;;;;;;;;;-144.99;86.96;52688.63;5053219;28;20091;-76
2021/12/02 05:08:46;;;;;;;;;;;;;;;-144.99;86.80;52694.72;5053667;28;19999;-75
2021/12/02 05:11:12;;;;;;;;;;;;;;;-144.99;86.70;52668.22;5053027;28;20102;-74
2021/12/02 05:13:39;;;;;;;;;;;;;;;-144.99;86.75;52700.84;5052508;28;20009;-75
2021/12/02 05:16:05;;;;;;;;;;;;;;;-144.99;86.33;52676.38;5052602;28;19977;-73
2021/12/02 05:18:32;;;;;;;;;;;;;;;-144.99;85.27;52717.16;5045947;28;19981;-75
2021/12/02 05:20:59;;;;;;;;;;;;;;;-144.99;84.99;52696.78;5049862;28;20068;-74
2021/12/02 05:23:26;;;;;;;;;;;;;;;-144.99;90.16;52656.00;5042768;28;19981;-75
2021/12/02 05:25:54;;;;;;;;;;;;;;;-144.99;91.54;52688.63;5045295;28;20350;-76
2021/12/02 05:28:20;;;;;;;;;;;;;;;-144.99;93.79;52692.69;5051226;28;19977;-75
2021/12/02 05:30:47;;;;;;;;;;;;;;;-144.99;91.65;52635.63;5046203;28;20347;-75
2021/12/02 05:33:14;;;;;;;;;;;;;;;-144.99;93.62;52680.47;5050162;28;19981;-74
2021/12/02 05:35:40;;;;;;;;;;;;;;;-144.99;93.00;52700.84;5047506;28;20422;-75
2021/12/02 05:38:06;;;;;;;;;;;;;;;-144.99;100.00;52680.47;5044587;28;19997;-75
2021/12/02 05:40:33;;;;;;;;;;;;;;;-144.99;96.40;52660.09;5037367;28;19982;-75
2021/12/02 05:43:00;;;;;;;;;;;;;;;-144.99;91.07;52660.09;5049135;28;20049;-73
2021/12/02 05:45:27;;;;;;;;;;;;;;;-144.99;93.45;52656.00;5039147;28;19981;-74
2021/12/02 05:47:53;;;;;;;;;;;;;;;-144.99;93.45;52682.50;5051553;28;20374;-74
2021/12/02 05:50:19;;;;;;;;;;;;;;;-144.99;91.53;52658.03;5048893;28;20000;-75
2021/12/02 05:52:47;;;;;;;;;;;;;;;-144.99;91.58;52694.72;5050004;28;20008;-74
2021/12/02 05:55:13;;;;;;;;;;;;;;;-144.99;94.48;52651.94;5043069;28;19969;-74
2021/12/02 05:57:40;;;;;;;;;;;;;;;-144.99;91.11;52690.66;5044762;28;20008;-75
2021/12/02 06:00:09;;;;;;;;;;;;;;;-144.99;93.94;52704.94;5037233;28;19993;-74
2021/12/02 06:02:37;;;;;;;;;;;;;;;-144.99;91.67;52700.84;5047331;28;19997;-75
2021/12/02 06:05:03;;;;;;;;;;;;;;;-144.99;93.66;52696.78;5043333;28;19977;-75
2021/12/02 06:07:29;;;;;;;;;;;;;;;-144.99;89.51;52694.72;5043681;28;19974;-73
2021/12/02 06:09:56;;;;;;;;;;;;;;;-144.99;86.46;52678.44;5047885;28;20032;-73
2021/12/02 06:12:22;;;;;;;;;;;;;;;-144.99;86.42;52692.69;5046566;28;19993;-74
2021/12/02 06:14:49;;;;;;;;;;;;;;;-144.99;86.34;52676.38;5040484;28;20005;-74
2021/12/02 06:17:17;;;;;;;;;;;;;;;-144.99;86.35;52709.00;5045989;28;19989;-74
2021/12/02 06:19:43;;;;;;;;;;;;;;;-144.99;86.67;52670.28;4347420;28;10000678;-76
2021/12/02 06:22:09;;;;;;;;;;;;;;;-144.99;86.95;52619.31;5046936;28;20629;-74
2021/12/02 06:24:43;;;;;;;;;;;;;;;-144.99;87.00;52668.22;5041051;28;19985;-75
2021/12/02 06:27:10;;;;;;;;;;;;;;;-144.99;88.08;52709.00;5046569;28;20524;-74
2021/12/02 06:29:37;;;;;;;;;;;;;;;-144.99;88.65;52717.16;5052156;28;19988;-74
2021/12/02 06:32:04;;;;;;;;;;;;;;;-144.99;89.07;52664.16;5044098;28;20442;-72
2021/12/02 06:34:32;;;;;;;;;;;;;;;-144.99;89.09;52733.47;5034958;28;20355;-73
2021/12/02 06:36:58;;;;;;;;;;;;;;;-144.99;89.30;52682.50;5047689;28;19996;-74
2021/12/02 06:39:25;;;;;;;;;;;;;;;-144.99;89.81;52668.22;5041180;28;19981;-74
2021/12/02 06:41:51;;;;;;;;;;;;;;;-144.99;89.68;52676.38;5041938;28;20004;-71
2021/12/02 06:44:17;;;;;;;;;;;;;;;-144.99;90.26;52688.63;5046417;28;19988;-77
2021/12/02 06:46:44;;;;;;;;;;;;;;;-144.99;90.38;52704.94;5042194;28;19988;-74
2021/12/02 06:49:10;;;;;;;;;;;;;;;-144.99;90.46;52660.09;5046275;28;19981;-78
2021/12/02 06:51:38;;;;;;;;;;;;;;;-144.99;90.45;52717.16;5042138;28;20017;-74
2021/12/02 06:54:04;;;;;;;;;;;;;;;-144.99;91.41;52664.16;5040698;28;20199;-73
2021/12/02 06:56:31;;;;;;;;;;;;;;;-144.99;91.36;52700.84;5041460;28;19984;-73
2021/12/02 06:58:57;;;;;;;;;;;;;;;-144.99;91.89;52674.34;5046265;28;19977;-74
2021/12/02 07:01:24;;;;;;;;;;;;;;;-144.99;91.84;52688.63;5035487;28;20390;-73
2021/12/02 07:03:50;;;;;;;;;;;;;;;-144.99;92.17;52696.78;5039456;28;20005;-72
2021/12/02 07:06:16;;;;;;;;;;;;;;;-144.99;92.34;52757.94;5045014;28;19977;-76
2021/12/02 07:08:44;;;;;;;;;;;;;;;-144.99;92.16;52721.22;5041418;28;20469;-75
2021/12/02 07:11:10;;;;;;;;;;;;;;;-144.99;92.31;52725.31;5040328;28;20501;-76
2021/12/02 07:13:38;;;;;;;;;;;;;;;-144.99;92.76;52664.16;5035456;28;20334;-76
2021/12/02 07:16:05;;;;;;;;;;;;;;;-144.99;93.08;52680.47;5043208;28;19977;-74
2021/12/02 07:18:35;;;;;;;;;;;;;;;-144.99;93.41;52700.84;5040399;28;20020;-74
2021/12/02 07:21:02;;;;;;;;;;;;;;;-144.99;93.24;52688.63;5037058;28;19980;-74
2021/12/02 07:23:28;;;;;;;;;;;;;;;-144.99;92.85;52676.38;5040227;28;19977;-75
2021/12/02 07:25:57;;;;;;;;;;;;;;;-144.99;93.22;52733.47;5039674;28;19988;-74
2021/12/02 07:28:24;;;;;;;;;;;;;;;-144.99;93.19;52709.00;5040395;28;20439;-74
2021/12/02 07:30:52;;;;;;;;;;;;;;;-144.99;93.29;52721.22;5041310;28;20380;-73
2021/12/02 07:33:19;;;;;;;;;;;;;;;-144.99;93.37;52721.22;5044097;28;19985;-74
2021/12/02 07:35:46;;;;;;;;;;;;;;;-144.99;92.96;52639.69;5045889;28;19988;-74
2021/12/02 07:38:12;;;;;;;;;;;;;;;-144.99;92.36;52729.38;5040978;28;20100;-73
2021/12/02 07:40:41;;;;;;;;;;;;;;;-144.99;92.02;52700.84;5047996;28;20025;-76
2021/12/02 07:43:08;;;;;;;;;;;;;;;-144.99;91.18;52694.72;5045598;28;20056;-72
2021/12/02 07:45:35;;;;;;;;;;;;;;;-144.99;90.39;52696.78;5033495;28;20023;-73
2021/12/02 07:48:03;;;;;;;;;;;;;;;-144.99;89.54;52700.84;5037997;28;19983;-74
2021/12/02 07:50:30;;;;;;;;;;;;;;;-144.99;88.22;52676.38;5038499;28;19985;-73
2021/12/02 07:52:59;;;;;;;;;;;;;;;-144.99;87.32;52680.47;5038020;28;20451;-73
2021/12/02 07:55:26;;;;;;;;;;;;;;;-144.99;86.30;52670.28;5047817;28;19995;-73
2021/12/02 07:57:53;;;;;;;;;;;;;;;-144.99;83.88;52668.22;5038154;28;19997;-76
2021/12/02 08:00:22;;;;;;;;;;;;;;;-144.99;83.08;52647.84;5046897;28;19996;-74
2021/12/02 08:02:50;;;;;;;;;;;;;;;-144.99;81.61;52700.84;5049121;28;20005;-73
2021/12/02 08:05:16;;;;;;;;;;;;;;;-144.99;80.50;52704.94;5042373;28;20457;-74
2021/12/02 08:07:44;;;;;;;;;;;;;;;-144.99;79.07;52647.84;5043635;28;20436;-74
2021/12/02 08:10:11;;;;;;;;;;;;;;;-144.99;77.77;52676.38;5049960;28;19981;-76
2021/12/02 08:12:39;;;;;;;;;;;;;;;-144.99;76.80;52662.13;5046459;28;19994;-75
2021/12/02 08:15:07;;;;;;;;;;;;;;;-144.99;75.50;52649.88;5042566;28;19982;-72
2021/12/02 08:17:35;;;;;;;;;;;;;;;-144.99;74.09;52639.69;5048891;28;20627;-76
2021/12/02 08:20:01;;;;;;;;;;;;;;;-144.99;73.08;52631.53;5040989;28;19985;-74
2021/12/02 08:22:28;;;;;;;;;;;;;;;-144.99;70.57;52692.69;5049009;28;20007;-75
2021/12/02 08:24:54;;;;;;;;;;;;;;;-144.99;70.46;52631.53;5048401;28;19981;-75
2021/12/02 08:27:22;;;;;;;;;;;;;;;-144.99;69.37;52680.47;5041816;28;20243;-77
2021/12/02 08:29:48;;;;;;;;;;;;;;;-144.99;68.38;52647.84;5048476;28;19992;-75
2021/12/02 08:32:15;;;;;;;;;;;;;;;-144.99;67.96;52631.53;5040664;28;20001;-75
2021/12/02 08:34:43;;;;;;;;;;;;;;;-144.99;66.77;52656.00;5047730;28;20088;-77
2021/12/02 08:37:10;;;;;;;;;;;;;;;-144.99;65.88;52700.84;5045338;28;20022;-76
2021/12/02 08:39:37;;;;;;;;;;;;;;;-144.99;65.46;52637.66;5051332;28;20007;-74
2021/12/02 08:42:04;;;;;;;;;;;;;;;-144.99;64.53;52566.31;5051768;28;20219;-74
2021/12/02 08:44:32;;;;;;;;;;;;;;;-144.99;62.49;52619.31;5046830;28;19982;-75
2021/12/02 08:46:59;;;;;;;;;;;;;;;-144.99;62.47;52639.69;5046574;28;20028;-74
2021/12/02 08:49:25;;;;;;;;;;;;;;;-144.99;61.82;52607.09;5051833;28;19973;-76
2021/12/02 08:51:53;;;;;;;;;;;;;;;-144.99;60.98;52635.63;5050441;28;20405;-75
2021/12/02 08:54:20;;;;;;;;;;;;;;;-144.99;59.59;52647.84;5038506;28;20422;-76
2021/12/02 08:56:46;;;;;;;;;;;;;;;-144.99;59.70;52651.94;5062562;28;20447;-74
2021/12/02 08:59:13;;;;;;;;;;;;;;;-144.99;59.33;52643.78;5046237;28;20104;-75
2021/12/02 09:01:40;;;;;;;;;;;;;;;-144.99;58.97;52647.84;5050043;28;20346;-74
2021/12/02 09:04:06;;;;;;;;;;;;;;;-144.99;58.65;52615.25;5046460;28;20060;-76
2021/12/02 09:06:32;;;;;;;;;;;;;;;-144.99;58.20;52607.09;5052371;28;19985;-76
2021/12/02 09:09:00;;;;;;;;;;;;;;;-144.99;57.86;52623.38;5044879;28;19981;-75
2021/12/02 09:11:29;;;;;;;;;;;;;;;-144.99;56.77;52617.28;5047384;28;20018;-72
2021/12/02 09:13:58;;;;;;;;;;;;;;;-144.99;55.98;52631.53;5044537;28;20055;-74
2021/12/02 09:16:24;;;;;;;;;;;;;;;-144.99;55.44;52627.47;5043846;28;20228;-74
2021/12/02 09:18:51;;;;;;;;;;;;;;;-144.99;53.80;52607.09;5050247;28;20016;-74
2021/12/02 09:21:17;;;;;;;;;;;;;;;-144.99;53.87;52596.88;5046278;28;20051;-75
2021/12/02 09:23:44;;;;;;;;;;;;;;;-144.99;53.24;52664.16;5045714;28;19997;-74
2021/12/02 09:26:11;;;;;;;;;;;;;;;-144.99;52.66;52623.38;5044662;28;19985;-75
2021/12/02 09:28:38;;;;;;;;;;;;;;;-144.99;52.05;52603.00;5033479;28;20004;-75
2021/12/02 09:31:04;;;;;;;;;;;;;;;-144.99;50.75;52603.00;5050794;28;19997;-74
2021/12/02 09:33:30;;;;;;;;;;;;;;;-144.99;50.51;52570.38;5046452;28;19996;-74
2021/12/02 09:35:57;;;;;;;;;;;;;;;-144.99;49.64;52627.47;5048342;28;19977;-73
2021/12/02 09:38:24;;;;;;;;;;;;;;;-144.99;49.56;52600.97;5052235;28;20004;-74
2021/12/02 09:40:50;;;;;;;;;;;;;;;-144.99;48.66;52574.47;5051919;28;20031;-73
2021/12/02 09:43:18;;;;;;;;;;;;;;;-144.99;47.92;52574.47;5050840;28;19992;-74
2021/12/02 09:45:44;;;;;;;;;;;;;;;-144.99;47.16;52627.47;5041610;28;19977;-73
2021/12/02 09:48:11;;;;;;;;;;;;;;;-144.99;45.95;52505.16;5048635;28;19977;-75
2021/12/02 09:50:48;;;;;;;;;;;;;;;-144.99;45.04;52521.47;5051176;28;20072;-73
2021/12/02 09:53:18;;;;;;;;;;;;;;;-144.99;43.76;52545.94;5051875;28;20380;-75
2021/12/02 09:55:48;;;;;;;;;;;;;;;-144.99;43.24;52525.56;5044360;28;20376;-75
2021/12/02 09:58:20;;;;;;;;;;;;;;;-144.99;42.89;52541.84;5034568;28;20096;-73
2021/12/02 10:00:52;;;;;;;;;;;;;;;-144.99;41.93;52505.16;5030327;28;19982;-74
2021/12/02 10:03:24;;;;;;;;;;;;;;;-144.99;40.26;52480.72;5043640;28;20016;-75
2021/12/02 10:05:59;;;;;;;;;;;;;;;-144.99;39.33;52444.03;5050664;28;20063;-75
2021/12/02 10:08:29;;;;;;;;;;;;;;;-144.99;38.24;52415.47;5050854;28;19992;-74
2021/12/02 10:10:57;;;;;;;;;;;;;;;-144.99;36.94;52423.63;5051245;28;20068;-74
2021/12/02 10:13:28;;;;;;;;;;;;;;;-144.99;36.66;52444.03;5050241;28;20453;-76
2021/12/02 10:16:25;;;;;;;;;;;;;;;-144.99;36.66;52421.59;5045925;28;20510;-75
2021/12/02 10:18:59;;;;;;;;;;;;;;;-144.99;35.87;52419.56;5042683;28;19988;-75
2021/12/02 10:21:29;;;;;;;;;;;;;;;-144.99;35.33;52391.03;5051976;28;19988;-75
2021/12/02 10:23:55;;;;;;;;;;;;;;;-144.99;34.76;52370.63;5051993;28;20091;-75
2021/12/02 10:26:23;;;;;;;;;;;;;;;-144.99;34.33;52378.78;5044218;28;19988;-74
2021/12/02 10:28:51;;;;;;;;;;;;;;;-144.99;34.61;52370.63;5045791;28;19984;-74
2021/12/02 10:31:19;;;;;;;;;;;;;;;-144.99;34.19;52342.09;5052122;28;20040;-74
2021/12/02 10:33:49;;;;;;;;;;;;;;;-144.99;33.51;52350.25;5049622;28;20051;-75
2021/12/02 10:36:24;;;;;;;;;;;;;;;-144.99;33.49;52378.78;5048111;28;19989;-77
2021/12/02 10:38:50;;;;;;;;;;;;;;;-144.99;32.43;52323.75;5058003;28;19987;-76
2021/12/02 10:41:18;;;;;;;;;;;;;;;-144.99;32.13;52280.97;5064639;28;19989;-76
2021/12/02 10:43:59;;;;;;;;;;;;;;;-144.99;32.49;52295.22;5067830;28;20031;-78
2021/12/02 10:46:26;;;;;;;;;;;;;;;-144.99;31.40;52252.44;5066174;28;19978;-81
2021/12/02 10:48:53;;;;;;;;;;;;;;;-144.99;30.97;52291.16;5057811;28;19988;-75
2021/12/02 10:51:38;;;;;;;;;;;;;;;-144.99;30.86;52317.66;5058805;28;20096;-75
2021/12/02 10:54:07;;;;;;;;;;;;;;;-144.99;30.79;52325.81;5060315;28;19973;-76
2021/12/02 10:56:34;;;;;;;;;;;;;;;-144.99;30.59;52395.09;5055966;28;19997;-78
2021/12/02 10:59:15;;;;;;;;;;;;;;;-144.99;31.42;52346.19;5066461;28;19993;-77
2021/12/02 11:01:41;;;;;;;;;;;;;;;-144.99;31.19;52313.56;5065740;28;20056;-80
2021/12/02 11:04:10;;;;;;;;;;;;;;;-144.99;30.78;52258.53;5065707;28;19991;-78
2021/12/02 11:06:44;;;;;;;;;;;;;;;-144.99;30.45;52321.72;5061917;28;19978;-76
2021/12/02 11:09:24;;;;;;;;;;;;;;;-144.99;30.12;52289.13;5040925;28;20010;-77
2021/12/02 11:12:04;;;;;;;;;;;;;;;-144.99;30.37;52333.94;5049864;28;20475;-79
2021/12/02 11:14:30;;;;;;;;;;;;;;;-144.99;29.83;52407.31;5055019;28;20455;-76
2021/12/02 11:17:06;;;;;;;;;;;;;;;-144.99;31.23;52486.81;5053321;28;19991;-77
2021/12/02 11:19:33;;;;;;;;;;;;;;;-144.99;32.77;52550.00;5041412;28;20001;-78
2021/12/02 11:22:06;;;;;;;;;;;;;;;-144.99;33.48;52533.69;5045945;28;20496;-78
2021/12/02 11:24:32;;;;;;;;;;;;;;;-144.99;35.11;52594.84;5057444;28;19997;-78
2021/12/02 11:27:09;;;;;;;;;;;;;;;-144.99;36.03;52627.47;5056374;28;19977;-78
2021/12/02 11:29:54;;;;;;;;;;;;;;;-144.99;36.72;52656.00;5053029;28;20072;-76
2021/12/02 11:32:24;;;;;;;;;;;;;;;-144.99;37.80;52649.88;5042527;28;20081;-77
2021/12/02 11:34:58;;;;;;;;;;;;;;;-144.99;38.68;52680.47;5050329;28;19975;-77
2021/12/02 11:37:26;;;;;;;;;;;;;;;-144.99;39.13;52660.09;5040337;28;20602;-74
2021/12/02 11:39:53;;;;;;;;;;;;;;;-144.99;39.85;52668.22;5045563;28;20155;-76
2021/12/02 11:42:20;;;;;;;;;;;;;;;-144.99;40.73;52631.53;5046757;28;20511;-73
2021/12/02 11:44:46;;;;;;;;;;;;;;;-144.99;42.69;52717.16;5040070;28;20049;-73
2021/12/02 11:47:13;;;;;;;;;;;;;;;-144.99;43.33;52717.16;5037398;28;19977;-76
2021/12/02 11:49:39;;;;;;;;;;;;;;;-144.99;43.44;52721.22;5044692;28;19973;-74
2021/12/02 11:52:06;;;;;;;;;;;;;;;-144.99;43.93;52729.38;5049953;28;19993;-75
2021/12/02 11:54:34;;;;;;;;;;;;;;;-144.99;44.48;52692.69;5049268;28;19989;-76
2021/12/02 11:57:00;;;;;;;;;;;;;;;-144.99;45.36;52725.31;5043844;28;19997;-77
2021/12/02 11:59:26;;;;;;;;;;;;;;;-144.99;45.73;52751.81;5047263;28;19994;-78
2021/12/02 12:01:55;;;;;;;;;;;;;;;-144.99;45.78;52692.69;5038730;28;20001;-75
2021/12/02 12:04:22;;;;;;;;;;;;;;;-144.99;46.23;52733.47;5045994;28;20018;-76
2021/12/02 12:06:53;;;;;;;;;;;;;;;-144.99;46.24;52713.09;5048570;28;20354;-76
2021/12/02 12:09:20;;;;;;;;;;;;;;;-144.99;46.64;52713.09;5049582;28;19977;-75
2021/12/02 12:11:49;;;;;;;;;;;;;;;-144.99;46.89;52733.47;5050153;28;20523;-75
2021/12/02 12:14:18;;;;;;;;;;;;;;;-144.99;47.34;52727.34;5046456;28;19999;-76
2021/12/02 12:16:46;;;;;;;;;;;;;;;-144.99;47.39;52696.78;5047401;28;19986;-74
2021/12/02 12:19:17;;;;;;;;;;;;;;;-144.99;47.70;52717.16;5052473;28;19989;-75
2021/12/02 12:21:45;;;;;;;;;;;;;;;-144.99;47.50;52631.53;5049832;28;20485;-75
2021/12/02 12:24:14;;;;;;;;;;;;;;;-144.99;47.21;52647.84;5047319;28;20428;-75
2021/12/02 12:26:43;;;;;;;;;;;;;;;-144.99;45.13;52653.97;5039546;28;19981;-75
2021/12/02 12:29:36;;;;;;;;;;;;;;;-144.99;44.45;52645.81;5050049;28;19985;-75
2021/12/02 12:32:34;;;;;;;;;;;;;;;-144.99;44.02;52656.00;5053962;28;20001;-74
2021/12/02 12:35:06;;;;;;;;;;;;;;;-144.99;44.41;52664.16;5044485;28;19985;-75
2021/12/02 12:37:51;;;;;;;;;;;;;;;-144.99;44.71;52656.00;5054476;28;20510;-76